sensor_id;sensor_type;location;lat;lon;timestamp;pressure;altitude;pressure_sealevel;temperature
15360;BMP280;7779;49.596;11.070;2023-08-21T00:01:15;98694.06;;;26.97
15360;BMP280;7779;49.596;11.070;2023-08-21T00:03:40;98694.94;;;26.93
15360;BMP280;7779;49.596;11.070;2023-08-21T00:06:06;98698.38;;;26.92
15360;BMP280;7779;49.596;11.070;2023-08-21T00:08:32;98689.81;;;26.90
15360;BMP280;7779;49.596;11.070;2023-08-21T00:10:57;98698.38;;;26.89
15360;BMP280;7779;49.596;11.070;2023-08-21T00:13:23;98700.09;;;26.87
15360;BMP280;7779;49.596;11.070;2023-08-21T00:15:49;98697.53;;;26.84
15360;BMP280;7779;49.596;11.070;2023-08-21T00:18:15;98702.66;;;26.84
15360;BMP280;7779;49.596;11.070;2023-08-21T00:20:40;98702.66;;;26.81
15360;BMP280;7779;49.596;11.070;2023-08-21T00:23:08;98704.34;;;26.79
15360;BMP280;7779;49.596;11.070;2023-08-21T00:25:34;98707.78;;;26.78
15360;BMP280;7779;49.596;11.070;2023-08-21T00:28:00;98701.81;;;26.76
15360;BMP280;7779;49.596;11.070;2023-08-21T00:30:26;98705.22;;;26.75
15360;BMP280;7779;49.596;11.070;2023-08-21T00:32:52;98704.38;;;26.73
15360;BMP280;7779;49.596;11.070;2023-08-21T00:35:19;98706.94;;;26.73
15360;BMP280;7779;49.596;11.070;2023-08-21T00:37:44;98710.38;;;26.72
15360;BMP280;7779;49.596;11.070;2023-08-21T00:40:11;98703.50;;;26.71
15360;BMP280;7779;49.596;11.070;2023-08-21T00:42:37;98708.66;;;26.71
15360;BMP280;7779;49.596;11.070;2023-08-21T00:45:03;98709.53;;;26.70
15360;BMP280;7779;49.596;11.070;2023-08-21T00:47:29;98719.81;;;26.70
15360;BMP280;7779;49.596;11.070;2023-08-21T00:49:56;98715.50;;;26.69
15360;BMP280;7779;49.596;11.070;2023-08-21T00:52:21;98714.66;;;26.70
15360;BMP280;7779;49.596;11.070;2023-08-21T00:54:48;98704.38;;;26.69
15360;BMP280;7779;49.596;11.070;2023-08-21T00:57:14;98705.22;;;26.69
15360;BMP280;7779;49.596;11.070;2023-08-21T00:59:40;98706.97;;;26.69
15360;BMP280;7779;49.596;11.070;2023-08-21T01:02:06;98706.06;;;26.68
15360;BMP280;7779;49.596;11.070;2023-08-21T01:04:32;98715.50;;;26.69
15360;BMP280;7779;49.596;11.070;2023-08-21T01:06:58;98717.25;;;26.70
15360;BMP280;7779;49.596;11.070;2023-08-21T01:09:39;98713.78;;;26.71
15360;BMP280;7779;49.596;11.070;2023-08-21T01:12:33;98703.50;;;26.71
15360;BMP280;7779;49.596;11.070;2023-08-21T01:15:07;98712.94;;;26.69
15360;BMP280;7779;49.596;11.070;2023-08-21T01:17:37;98713.78;;;26.70
15360;BMP280;7779;49.596;11.070;2023-08-21T01:20:06;98724.94;;;26.69
15360;BMP280;7779;49.596;11.070;2023-08-21T01:22:40;98736.06;;;26.69
15360;BMP280;7779;49.596;11.070;2023-08-21T01:25:07;98735.22;;;26.69
15360;BMP280;7779;49.596;11.070;2023-08-21T01:27:35;98736.91;;;26.68
15360;BMP280;7779;49.596;11.070;2023-08-21T01:30:03;98739.50;;;26.68
15360;BMP280;7779;49.596;11.070;2023-08-21T01:32:39;98744.63;;;26.68
15360;BMP280;7779;49.596;11.070;2023-08-21T01:35:09;98740.38;;;26.69
15360;BMP280;7779;49.596;11.070;2023-08-21T01:37:36;98747.22;;;26.68
15360;BMP280;7779;49.596;11.070;2023-08-21T01:40:02;98751.50;;;26.66
15360;BMP280;7779;49.596;11.070;2023-08-21T01:42:28;98747.22;;;26.65
15360;BMP280;7779;49.596;11.070;2023-08-21T01:44:54;98742.06;;;26.62
15360;BMP280;7779;49.596;11.070;2023-08-21T01:47:20;98735.25;;;26.60
15360;BMP280;7779;49.596;11.070;2023-08-21T01:49:46;98728.38;;;26.56
15360;BMP280;7779;49.596;11.070;2023-08-21T01:52:12;98728.38;;;26.50
15360;BMP280;7779;49.596;11.070;2023-08-21T01:54:38;98727.50;;;26.46
15360;BMP280;7779;49.596;11.070;2023-08-21T01:57:04;98726.66;;;26.44
15360;BMP280;7779;49.596;11.070;2023-08-21T01:59:31;98718.09;;;26.41
15360;BMP280;7779;49.596;11.070;2023-08-21T02:01:56;98712.97;;;26.36
15360;BMP280;7779;49.596;11.070;2023-08-21T02:04:22;98707.84;;;26.31
15360;BMP280;7779;49.596;11.070;2023-08-21T02:06:48;98707.81;;;26.25
15360;BMP280;7779;49.596;11.070;2023-08-21T02:09:13;98716.34;;;26.18
15360;BMP280;7779;49.596;11.070;2023-08-21T02:11:39;98723.22;;;26.14
15360;BMP280;7779;49.596;11.070;2023-08-21T02:14:05;98712.91;;;26.10
15360;BMP280;7779;49.596;11.070;2023-08-21T02:16:31;98713.75;;;26.10
15360;BMP280;7779;49.596;11.070;2023-08-21T02:18:57;98712.91;;;26.08
15360;BMP280;7779;49.596;11.070;2023-08-21T02:21:23;98717.19;;;26.08
15360;BMP280;7779;49.596;11.070;2023-08-21T02:23:49;98714.63;;;26.09
15360;BMP280;7779;49.596;11.070;2023-08-21T02:26:15;98716.34;;;26.13
15360;BMP280;7779;49.596;11.070;2023-08-21T02:28:42;98721.50;;;26.16
15360;BMP280;7779;49.596;11.070;2023-08-21T02:31:09;98715.50;;;26.19
15360;BMP280;7779;49.596;11.070;2023-08-21T02:33:36;98727.50;;;26.23
15360;BMP280;7779;49.596;11.070;2023-08-21T02:36:02;98724.09;;;26.25
15360;BMP280;7779;49.596;11.070;2023-08-21T02:38:29;98718.94;;;26.28
15360;BMP280;7779;49.596;11.070;2023-08-21T02:40:56;98724.09;;;26.31
15360;BMP280;7779;49.596;11.070;2023-08-21T02:43:22;98722.38;;;26.32
15360;BMP280;7779;49.596;11.070;2023-08-21T02:45:47;98719.81;;;26.32
15360;BMP280;7779;49.596;11.070;2023-08-21T02:48:13;98711.25;;;26.33
15360;BMP280;7779;49.596;11.070;2023-08-21T02:50:39;98717.25;;;26.34
15360;BMP280;7779;49.596;11.070;2023-08-21T02:53:05;98711.22;;;26.34
15360;BMP280;7779;49.596;11.070;2023-08-21T02:55:31;98716.38;;;26.35
15360;BMP280;7779;49.596;11.070;2023-08-21T02:57:57;98709.56;;;26.36
15360;BMP280;7779;49.596;11.070;2023-08-21T03:00:22;98708.69;;;26.35
15360;BMP280;7779;49.596;11.070;2023-08-21T03:02:48;98713.81;;;26.37
15360;BMP280;7779;49.596;11.070;2023-08-21T03:05:14;98710.41;;;26.36
15360;BMP280;7779;49.596;11.070;2023-08-21T03:07:40;98712.09;;;26.37
15360;BMP280;7779;49.596;11.070;2023-08-21T03:10:07;98713.81;;;26.37
15360;BMP280;7779;49.596;11.070;2023-08-21T03:12:33;98706.09;;;26.37
15360;BMP280;7779;49.596;11.070;2023-08-21T03:14:59;98712.09;;;26.37
15360;BMP280;7779;49.596;11.070;2023-08-21T03:17:25;98717.22;;;26.37
15360;BMP280;7779;49.596;11.070;2023-08-21T03:19:51;98712.09;;;26.37
15360;BMP280;7779;49.596;11.070;2023-08-21T03:22:17;98718.13;;;26.38
15360;BMP280;7779;49.596;11.070;2023-08-21T03:24:43;98718.13;;;26.39
15360;BMP280;7779;49.596;11.070;2023-08-21T03:27:09;98717.25;;;26.40
15360;BMP280;7779;49.596;11.070;2023-08-21T03:29:34;98718.97;;;26.41
15360;BMP280;7779;49.596;11.070;2023-08-21T03:32:01;98717.25;;;26.43
15360;BMP280;7779;49.596;11.070;2023-08-21T03:34:26;98718.94;;;26.44
15360;BMP280;7779;49.596;11.070;2023-08-21T03:36:56;98720.69;;;26.45
15360;BMP280;7779;49.596;11.070;2023-08-21T03:39:23;98716.38;;;26.46
15360;BMP280;7779;49.596;11.070;2023-08-21T03:41:49;98717.22;;;26.46
15360;BMP280;7779;49.596;11.070;2023-08-21T03:44:15;98713.81;;;26.47
15360;BMP280;7779;49.596;11.070;2023-08-21T03:46:41;98721.53;;;26.49
15360;BMP280;7779;49.596;11.070;2023-08-21T03:49:08;98724.97;;;26.52
15360;BMP280;7779;49.596;11.070;2023-08-21T03:51:34;98720.66;;;26.53
15360;BMP280;7779;49.596;11.070;2023-08-21T03:53:59;98723.25;;;26.54
15360;BMP280;7779;49.596;11.070;2023-08-21T03:56:25;98719.81;;;26.52
15360;BMP280;7779;49.596;11.070;2023-08-21T03:58:51;98732.66;;;26.49
15360;BMP280;7779;49.596;11.070;2023-08-21T04:01:16;98728.38;;;26.50
15360;BMP280;7779;49.596;11.070;2023-08-21T04:03:42;98724.13;;;26.50
15360;BMP280;7779;49.596;11.070;2023-08-21T04:06:08;98718.97;;;26.50
15360;BMP280;7779;49.596;11.070;2023-08-21T04:08:34;98722.41;;;26.52
15360;BMP280;7779;49.596;11.070;2023-08-21T04:10:59;98724.09;;;26.53
15360;BMP280;7779;49.596;11.070;2023-08-21T04:13:27;98732.66;;;26.55
15360;BMP280;7779;49.596;11.070;2023-08-21T04:15:54;98727.50;;;26.55
15360;BMP280;7779;49.596;11.070;2023-08-21T04:18:21;98736.94;;;26.58
15360;BMP280;7779;49.596;11.070;2023-08-21T04:20:50;98727.53;;;26.61
15360;BMP280;7779;49.596;11.070;2023-08-21T04:23:16;98729.22;;;26.62
15360;BMP280;7779;49.596;11.070;2023-08-21T04:25:41;98732.66;;;26.64
15360;BMP280;7779;49.596;11.070;2023-08-21T04:28:08;98738.66;;;26.66
15360;BMP280;7779;49.596;11.070;2023-08-21T04:30:34;98730.94;;;26.66
15360;BMP280;7779;49.596;11.070;2023-08-21T04:33:01;98738.66;;;26.66
15360;BMP280;7779;49.596;11.070;2023-08-21T04:35:27;98736.06;;;26.66
15360;BMP280;7779;49.596;11.070;2023-08-21T04:37:55;98748.09;;;26.67
15360;BMP280;7779;49.596;11.070;2023-08-21T04:40:24;98746.34;;;26.66
15360;BMP280;7779;49.596;11.070;2023-08-21T04:42:50;98745.50;;;26.66
15360;BMP280;7779;49.596;11.070;2023-08-21T04:45:17;98746.34;;;26.66
15360;BMP280;7779;49.596;11.070;2023-08-21T04:47:43;98743.81;;;26.65
15360;BMP280;7779;49.596;11.070;2023-08-21T04:50:09;98732.66;;;26.64
15360;BMP280;7779;49.596;11.070;2023-08-21T04:52:35;98737.78;;;26.63
15360;BMP280;7779;49.596;11.070;2023-08-21T04:55:01;98741.22;;;26.62
15360;BMP280;7779;49.596;11.070;2023-08-21T04:57:28;98742.94;;;26.61
15360;BMP280;7779;49.596;11.070;2023-08-21T04:59:54;98749.78;;;26.61
15360;BMP280;7779;49.596;11.070;2023-08-21T05:02:21;98752.34;;;26.61
15360;BMP280;7779;49.596;11.070;2023-08-21T05:04:49;98746.38;;;26.60
15360;BMP280;7779;49.596;11.070;2023-08-21T05:07:15;98752.34;;;26.59
15360;BMP280;7779;49.596;11.070;2023-08-21T05:09:41;98749.78;;;26.59
15360;BMP280;7779;49.596;11.070;2023-08-21T05:12:08;98755.81;;;26.60
15360;BMP280;7779;49.596;11.070;2023-08-21T05:14:34;98748.09;;;26.58
15360;BMP280;7779;49.596;11.070;2023-08-21T05:17:00;98753.22;;;26.58
15360;BMP280;7779;49.596;11.070;2023-08-21T05:19:26;98758.38;;;26.58
15360;BMP280;7779;49.596;11.070;2023-08-21T05:21:52;98760.06;;;26.59
15360;BMP280;7779;49.596;11.070;2023-08-21T05:24:17;98762.63;;;26.61
15360;BMP280;7779;49.596;11.070;2023-08-21T05:26:49;98758.38;;;26.61
15360;BMP280;7779;49.596;11.070;2023-08-21T05:29:15;98762.63;;;26.61
15360;BMP280;7779;49.596;11.070;2023-08-21T05:31:41;98766.06;;;26.63
15360;BMP280;7779;49.596;11.070;2023-08-21T05:34:08;98771.22;;;26.64
15360;BMP280;7779;49.596;11.070;2023-08-21T05:36:33;98772.94;;;26.67
15360;BMP280;7779;49.596;11.070;2023-08-21T05:39:04;98772.06;;;26.69
15360;BMP280;7779;49.596;11.070;2023-08-21T05:41:33;98774.66;;;26.72
15360;BMP280;7779;49.596;11.070;2023-08-21T05:43:59;98772.06;;;26.78
15360;BMP280;7779;49.596;11.070;2023-08-21T05:46:25;98772.91;;;26.81
15360;BMP280;7779;49.596;11.070;2023-08-21T05:48:51;98781.53;;;26.85
15360;BMP280;7779;49.596;11.070;2023-08-21T05:51:17;98780.66;;;26.89
15360;BMP280;7779;49.596;11.070;2023-08-21T05:53:43;98781.50;;;26.91
15360;BMP280;7779;49.596;11.070;2023-08-21T05:56:09;98784.09;;;26.94
15360;BMP280;7779;49.596;11.070;2023-08-21T05:58:34;98779.78;;;27.02
15360;BMP280;7779;49.596;11.070;2023-08-21T06:01:00;98766.91;;;27.13
15360;BMP280;7779;49.596;11.070;2023-08-21T06:03:26;98765.13;;;27.30
15360;BMP280;7779;49.596;11.070;2023-08-21T06:06:12;98769.38;;;27.51
15360;BMP280;7779;49.596;11.070;2023-08-21T06:08:39;98771.91;;;27.70
15360;BMP280;7779;49.596;11.070;2023-08-21T06:11:05;98773.50;;;27.89
15360;BMP280;7779;49.596;11.070;2023-08-21T06:13:30;98773.44;;;28.06
15360;BMP280;7779;49.596;11.070;2023-08-21T06:15:56;98781.06;;;28.24
15360;BMP280;7779;49.596;11.070;2023-08-21T06:18:23;98779.25;;;28.39
15360;BMP280;7779;49.596;11.070;2023-08-21T06:20:49;98769.72;;;28.52
15360;BMP280;7779;49.596;11.070;2023-08-21T06:23:20;98784.25;;;28.63
15360;BMP280;7779;49.596;11.070;2023-08-21T06:25:50;98788.44;;;28.74
15360;BMP280;7779;49.596;11.070;2023-08-21T06:28:23;98781.47;;;28.85
15360;BMP280;7779;49.596;11.070;2023-08-21T06:30:56;98783.06;;;28.98
15360;BMP280;7779;49.596;11.070;2023-08-21T06:33:29;98779.53;;;29.10
15360;BMP280;7779;49.596;11.070;2023-08-21T06:35:55;98778.59;;;29.19
15360;BMP280;7779;49.596;11.070;2023-08-21T06:38:21;98779.31;;;29.32
15360;BMP280;7779;49.596;11.070;2023-08-21T06:40:47;98788.66;;;29.43
15360;BMP280;7779;49.596;11.070;2023-08-21T06:43:13;98787.69;;;29.54
15360;BMP280;7779;49.596;11.070;2023-08-21T06:45:43;98781.50;;;29.66
15360;BMP280;7779;49.596;11.070;2023-08-21T06:48:08;98786.59;;;29.76
15360;BMP280;7779;49.596;11.070;2023-08-21T06:50:36;98783.00;;;29.85
15360;BMP280;7779;49.596;11.070;2023-08-21T06:53:03;98784.66;;;29.90
15360;BMP280;7779;49.596;11.070;2023-08-21T06:55:28;98788.03;;;29.96
15360;BMP280;7779;49.596;11.070;2023-08-21T06:57:54;98791.44;;;29.98
15360;BMP280;7779;49.596;11.070;2023-08-21T07:00:20;98794.03;;;29.98
15360;BMP280;7779;49.596;11.070;2023-08-21T07:02:45;98789.72;;;29.97
15360;BMP280;7779;49.596;11.070;2023-08-21T07:05:11;98784.56;;;29.97
15360;BMP280;7779;49.596;11.070;2023-08-21T07:07:37;98782.84;;;29.99
15360;BMP280;7779;49.596;11.070;2023-08-21T07:10:03;98788.78;;;30.04
15360;BMP280;7779;49.596;11.070;2023-08-21T07:12:29;98792.16;;;30.11
15360;BMP280;7779;49.596;11.070;2023-08-21T07:14:54;98792.06;;;30.17
15360;BMP280;7779;49.596;11.070;2023-08-21T07:17:20;98785.91;;;30.25
15360;BMP280;7779;49.596;11.070;2023-08-21T07:19:46;98785.81;;;30.34
15360;BMP280;7779;49.596;11.070;2023-08-21T07:22:12;98796.03;;;30.43
15360;BMP280;7779;49.596;11.070;2023-08-21T07:24:37;98796.72;;;30.52
15360;BMP280;7779;49.596;11.070;2023-08-21T07:27:03;98797.44;;;30.60
15360;BMP280;7779;49.596;11.070;2023-08-21T07:29:29;98797.31;;;30.68
15360;BMP280;7779;49.596;11.070;2023-08-21T07:31:55;98799.81;;;30.75
15360;BMP280;7779;49.596;11.070;2023-08-21T07:34:21;98786.72;;;30.84
15360;BMP280;7779;49.596;11.070;2023-08-21T07:36:47;98796.03;;;30.97
15360;BMP280;7779;49.596;11.070;2023-08-21T07:39:12;98791.50;;;31.08
15360;BMP280;7779;49.596;11.070;2023-08-21T07:41:38;98790.47;;;31.16
15360;BMP280;7779;49.596;11.070;2023-08-21T07:44:04;98782.53;;;31.26
15360;BMP280;7779;49.596;11.070;2023-08-21T07:46:29;98789.31;;;31.35
15360;BMP280;7779;49.596;11.070;2023-08-21T07:48:55;98790.03;;;31.41
15360;BMP280;7779;49.596;11.070;2023-08-21T07:51:21;98792.53;;;31.47
15360;BMP280;7779;49.596;11.070;2023-08-21T07:53:46;98806.28;;;31.49
15360;BMP280;7779;49.596;11.070;2023-08-21T07:56:12;98800.28;;;31.47
15360;BMP280;7779;49.596;11.070;2023-08-21T07:58:38;98796.00;;;31.45
15360;BMP280;7779;49.596;11.070;2023-08-21T08:01:04;98796.88;;;31.45
15360;BMP280;7779;49.596;11.070;2023-08-21T08:03:32;98797.66;;;31.49
15360;BMP280;7779;49.596;11.070;2023-08-21T08:05:58;98794.25;;;31.47
15360;BMP280;7779;49.596;11.070;2023-08-21T08:08:24;98803.72;;;31.49
15360;BMP280;7779;49.596;11.070;2023-08-21T08:10:50;98796.78;;;31.50
15360;BMP280;7779;49.596;11.070;2023-08-21T08:13:16;98793.31;;;31.51
15360;BMP280;7779;49.596;11.070;2023-08-21T08:15:41;98792.41;;;31.53
15360;BMP280;7779;49.596;11.070;2023-08-21T08:18:13;98800.00;;;31.62
15360;BMP280;7779;49.596;11.070;2023-08-21T08:20:40;98799.06;;;31.64
15360;BMP280;7779;49.596;11.070;2023-08-21T08:23:06;98794.63;;;31.71
15360;BMP280;7779;49.596;11.070;2023-08-21T08:25:31;98802.25;;;31.77
15360;BMP280;7779;49.596;11.070;2023-08-21T08:27:57;98794.38;;;31.83
15360;BMP280;7779;49.596;11.070;2023-08-21T08:30:23;98796.94;;;31.86
15360;BMP280;7779;49.596;11.070;2023-08-21T08:32:49;98796.09;;;31.84
15360;BMP280;7779;49.596;11.070;2023-08-21T08:35:15;98791.75;;;31.86
15360;BMP280;7779;49.596;11.070;2023-08-21T08:37:44;98793.38;;;31.90
15360;BMP280;7779;49.596;11.070;2023-08-21T08:40:12;98794.97;;;31.96
15360;BMP280;7779;49.596;11.070;2023-08-21T08:42:39;98796.56;;;32.03
15360;BMP280;7779;49.596;11.070;2023-08-21T08:45:05;98792.13;;;32.08
15360;BMP280;7779;49.596;11.070;2023-08-21T08:47:33;98793.66;;;32.15
15360;BMP280;7779;49.596;11.070;2023-08-21T08:50:06;98803.03;;;32.22
15360;BMP280;7779;49.596;11.070;2023-08-21T08:52:37;98799.41;;;32.29
15360;BMP280;7779;49.596;11.070;2023-08-21T08:55:04;98799.28;;;32.35
15360;BMP280;7779;49.596;11.070;2023-08-21T08:57:32;98794.84;;;32.41
15360;BMP280;7779;49.596;11.070;2023-08-21T08:59:58;98799.00;;;32.48
15360;BMP280;7779;49.596;11.070;2023-08-21T09:02:27;98791.19;;;32.50
15360;BMP280;7779;49.596;11.070;2023-08-21T09:04:53;98789.41;;;32.52
15360;BMP280;7779;49.596;11.070;2023-08-21T09:07:20;98794.44;;;32.58
15360;BMP280;7779;49.596;11.070;2023-08-21T09:09:48;98787.47;;;32.60
15360;BMP280;7779;49.596;11.070;2023-08-21T09:12:19;98795.16;;;32.64
15360;BMP280;7779;49.596;11.070;2023-08-21T09:14:45;98785.50;;;32.69
15360;BMP280;7779;49.596;11.070;2023-08-21T09:17:12;98788.81;;;32.75
15360;BMP280;7779;49.596;11.070;2023-08-21T09:19:39;98785.19;;;32.82
15360;BMP280;7779;49.596;11.070;2023-08-21T09:22:18;98790.25;;;32.88
15360;BMP280;7779;49.596;11.070;2023-08-21T09:25:08;98777.25;;;32.90
15360;BMP280;7779;49.596;11.070;2023-08-21T09:27:38;98778.91;;;32.92
15360;BMP280;7779;49.596;11.070;2023-08-21T09:30:09;98784.00;;;32.97
15360;BMP280;7779;49.596;11.070;2023-08-21T09:32:55;98779.56;;;33.00
15360;BMP280;7779;49.596;11.070;2023-08-21T09:35:23;98779.47;;;33.03
15360;BMP280;7779;49.596;11.070;2023-08-21T09:37:49;98775.97;;;33.06
15360;BMP280;7779;49.596;11.070;2023-08-21T09:40:19;98774.16;;;33.09
15360;BMP280;7779;49.596;11.070;2023-08-21T09:42:45;98773.19;;;33.11
15360;BMP280;7779;49.596;11.070;2023-08-21T09:45:11;98772.22;;;33.15
15360;BMP280;7779;49.596;11.070;2023-08-21T09:47:38;98770.41;;;33.19
15360;BMP280;7779;49.596;11.070;2023-08-21T09:50:05;98765.13;;;33.22
15360;BMP280;7779;49.596;11.070;2023-08-21T09:52:31;98757.16;;;33.28
15360;BMP280;7779;49.596;11.070;2023-08-21T09:54:58;98765.78;;;33.30
15360;BMP280;7779;49.596;11.070;2023-08-21T09:57:24;98759.59;;;33.34
15360;BMP280;7779;49.596;11.070;2023-08-21T09:59:53;98764.69;;;33.40
15360;BMP280;7779;49.596;11.070;2023-08-21T10:02:22;98757.66;;;33.43
15360;BMP280;7779;49.596;11.070;2023-08-21T10:04:49;98755.75;;;33.48
15360;BMP280;7779;49.596;11.070;2023-08-21T10:07:27;98751.28;;;33.53
15360;BMP280;7779;49.596;11.070;2023-08-21T10:09:54;98746.06;;;33.54
15360;BMP280;7779;49.596;11.070;2023-08-21T10:12:20;98746.91;;;33.55
15360;BMP280;7779;49.596;11.070;2023-08-21T10:14:47;98743.38;;;33.57
15360;BMP280;7779;49.596;11.070;2023-08-21T10:17:13;98743.19;;;33.63
15360;BMP280;7779;49.596;11.070;2023-08-21T10:19:39;98744.81;;;33.67
15360;BMP280;7779;49.596;11.070;2023-08-21T10:22:05;98733.38;;;33.73
15360;BMP280;7779;49.596;11.070;2023-08-21T10:24:36;98734.94;;;33.78
15360;BMP280;7779;49.596;11.070;2023-08-21T10:27:03;98737.47;;;33.81
15360;BMP280;7779;49.596;11.070;2023-08-21T10:29:29;98733.91;;;33.85
15360;BMP280;7779;49.596;11.070;2023-08-21T10:32:01;98728.50;;;33.91
15360;BMP280;7779;49.596;11.070;2023-08-21T10:34:36;98737.91;;;33.95
15360;BMP280;7779;49.596;11.070;2023-08-21T10:37:09;98725.63;;;34.00
15360;BMP280;7779;49.596;11.070;2023-08-21T10:39:38;98727.28;;;34.02
15360;BMP280;7779;49.596;11.070;2023-08-21T10:42:07;98728.03;;;34.06
15360;BMP280;7779;49.596;11.070;2023-08-21T10:49:59;98728.69;;;34.14
15360;BMP280;7779;49.596;11.070;2023-08-21T10:52:37;98724.28;;;34.16
15360;BMP280;7779;49.596;11.070;2023-08-21T10:55:04;98722.47;;;34.18
15360;BMP280;7779;49.596;11.070;2023-08-21T10:57:32;98725.84;;;34.21
15360;BMP280;7779;49.596;11.070;2023-08-21T11:00:06;98721.38;;;34.25
15360;BMP280;7779;49.596;11.070;2023-08-21T11:02:38;98717.00;;;34.27
15360;BMP280;7779;49.596;11.070;2023-08-21T11:05:05;98722.94;;;34.30
15360;BMP280;7779;49.596;11.070;2023-08-21T11:07:48;98722.72;;;34.37
15360;BMP280;7779;49.596;11.070;2023-08-21T11:10:22;98714.84;;;34.40
15360;BMP280;7779;49.596;11.070;2023-08-21T11:12:57;98717.31;;;34.43
15360;BMP280;7779;49.596;11.070;2023-08-21T11:15:25;98712.91;;;34.45
15360;BMP280;7779;49.596;11.070;2023-08-21T11:18:02;98704.19;;;34.48
15360;BMP280;7779;49.596;11.070;2023-08-21T11:20:35;98694.53;;;34.51
15360;BMP280;7779;49.596;11.070;2023-08-21T11:23:04;98699.56;;;34.56
15360;BMP280;7779;49.596;11.070;2023-08-21T11:25:34;98690.00;;;34.56
15360;BMP280;7779;49.596;11.070;2023-08-21T11:28:00;98701.16;;;34.60
15360;BMP280;7779;49.596;11.070;2023-08-21T11:30:32;98688.09;;;34.61
15360;BMP280;7779;49.596;11.070;2023-08-21T11:33:10;98690.56;;;34.66
15360;BMP280;7779;49.596;11.070;2023-08-21T11:35:37;98697.41;;;34.68
15360;BMP280;7779;49.596;11.070;2023-08-21T11:38:04;98688.72;;;34.69
15360;BMP280;7779;49.596;11.070;2023-08-21T11:40:34;98695.69;;;34.67
15360;BMP280;7779;49.596;11.070;2023-08-21T11:43:03;98690.47;;;34.67
15360;BMP280;7779;49.596;11.070;2023-08-21T11:45:31;98687.03;;;34.67
15360;BMP280;7779;49.596;11.070;2023-08-21T11:47:56;98687.09;;;34.65
15360;BMP280;7779;49.596;11.070;2023-08-21T11:50:22;98693.09;;;34.67
15360;BMP280;7779;49.596;11.070;2023-08-21T11:52:52;98691.41;;;34.66
15360;BMP280;7779;49.596;11.070;2023-08-21T11:55:18;98694.88;;;34.65
15360;BMP280;7779;49.596;11.070;2023-08-21T11:57:51;98689.81;;;34.62
15360;BMP280;7779;49.596;11.070;2023-08-21T12:00:18;98691.66;;;34.59
15360;BMP280;7779;49.596;11.070;2023-08-21T12:02:59;98688.25;;;34.57
15360;BMP280;7779;49.596;11.070;2023-08-21T12:05:27;98684.91;;;34.53
15360;BMP280;7779;49.596;11.070;2023-08-21T12:07:54;98684.91;;;34.53
15360;BMP280;7779;49.596;11.070;2023-08-21T12:10:28;98687.47;;;34.55
15360;BMP280;7779;49.596;11.070;2023-08-21T12:12:55;98685.75;;;34.54
15360;BMP280;7779;49.596;11.070;2023-08-21T12:15:21;98688.34;;;34.54
15360;BMP280;7779;49.596;11.070;2023-08-21T12:17:47;98682.97;;;34.58
15360;BMP280;7779;49.596;11.070;2023-08-21T12:20:13;98695.00;;;34.62
15360;BMP280;7779;49.596;11.070;2023-08-21T12:22:40;98685.44;;;34.63
15360;BMP280;7779;49.596;11.070;2023-08-21T12:25:06;98684.38;;;34.68
15360;BMP280;7779;49.596;11.070;2023-08-21T12:27:33;98684.28;;;34.71
15360;BMP280;7779;49.596;11.070;2023-08-21T12:29:58;98678.88;;;34.77
15360;BMP280;7779;49.596;11.070;2023-08-21T12:32:24;98683.88;;;34.83
15360;BMP280;7779;49.596;11.070;2023-08-21T12:34:50;98681.09;;;34.89
15360;BMP280;7779;49.596;11.070;2023-08-21T12:37:16;98674.66;;;34.99
15360;BMP280;7779;49.596;11.070;2023-08-21T12:39:41;98678.63;;;35.09
15360;BMP280;7779;49.596;11.070;2023-08-21T12:42:07;98679.22;;;35.16
15360;BMP280;7779;49.596;11.070;2023-08-21T12:44:34;98678.19;;;35.20
15360;BMP280;7779;49.596;11.070;2023-08-21T12:47:00;98676.28;;;35.25
15360;BMP280;7779;49.596;11.070;2023-08-21T12:49:26;98677.00;;;35.30
15360;BMP280;7779;49.596;11.070;2023-08-21T12:51:51;98672.34;;;35.38
15360;BMP280;7779;49.596;11.070;2023-08-21T12:54:18;98674.56;;;35.49
15360;BMP280;7779;49.596;11.070;2023-08-21T12:56:44;98671.59;;;35.57
15360;BMP280;7779;49.596;11.070;2023-08-21T12:59:09;98668.72;;;35.65
15360;BMP280;7779;49.596;11.070;2023-08-21T13:01:35;98670.28;;;35.69
15360;BMP280;7779;49.596;11.070;2023-08-21T13:04:03;98668.41;;;35.72
15360;BMP280;7779;49.596;11.070;2023-08-21T13:06:29;98666.56;;;35.76
15360;BMP280;7779;49.596;11.070;2023-08-21T13:08:54;98663.78;;;35.80
15360;BMP280;7779;49.596;11.070;2023-08-21T13:11:20;98672.16;;;35.88
15360;BMP280;7779;49.596;11.070;2023-08-21T13:13:46;98659.59;;;35.97
15360;BMP280;7779;49.596;11.070;2023-08-21T13:16:11;98662.63;;;36.08
15360;BMP280;7779;49.596;11.070;2023-08-21T13:18:37;98659.66;;;36.17
15360;BMP280;7779;49.596;11.070;2023-08-21T13:21:03;98657.50;;;36.28
15360;BMP280;7779;49.596;11.070;2023-08-21T13:23:29;98658.81;;;36.38
15360;BMP280;7779;49.596;11.070;2023-08-21T13:25:57;98655.88;;;36.45
15360;BMP280;7779;49.596;11.070;2023-08-21T13:28:24;98651.25;;;36.52
15360;BMP280;7779;49.596;11.070;2023-08-21T13:30:49;98658.91;;;36.56
15360;BMP280;7779;49.596;11.070;2023-08-21T13:33:15;98642.25;;;36.59
15360;BMP280;7779;49.596;11.070;2023-08-21T13:35:44;98638.59;;;36.63
15360;BMP280;7779;49.596;11.070;2023-08-21T13:38:12;98648.81;;;36.69
15360;BMP280;7779;49.596;11.070;2023-08-21T13:40:38;98639.16;;;36.71
15360;BMP280;7779;49.596;11.070;2023-08-21T13:43:06;98634.75;;;36.72
15360;BMP280;7779;49.596;11.070;2023-08-21T13:45:33;98631.19;;;36.73
15360;BMP280;7779;49.596;11.070;2023-08-21T13:47:59;98636.41;;;36.73
15360;BMP280;7779;49.596;11.070;2023-08-21T13:50:24;98626.09;;;36.71
15360;BMP280;7779;49.596;11.070;2023-08-21T13:52:50;98634.06;;;36.68
15360;BMP280;7779;49.596;11.070;2023-08-21T13:55:16;98621.25;;;36.62
15360;BMP280;7779;49.596;11.070;2023-08-21T13:57:42;98623.22;;;36.57
15360;BMP280;7779;49.596;11.070;2023-08-21T14:00:10;98621.75;;;36.50
15360;BMP280;7779;49.596;11.070;2023-08-21T14:02:38;98619.41;;;36.44
15360;BMP280;7779;49.596;11.070;2023-08-21T14:05:05;98613.66;;;36.36
15360;BMP280;7779;49.596;11.070;2023-08-21T14:07:32;98609.53;;;36.31
15360;BMP280;7779;49.596;11.070;2023-08-21T14:09:58;98607.25;;;36.23
15360;BMP280;7779;49.596;11.070;2023-08-21T14:12:24;98612.63;;;36.20
15360;BMP280;7779;49.596;11.070;2023-08-21T14:14:49;98602.25;;;36.17